sensor_id;sensor_type;location;lat;lon;timestamp;P1;durP1;ratioP1;P2;durP2;ratioP2
22152;SDS011;11242;50.536;12.688;2022-08-03T00:00:51;6.47;;;5.97;;
22152;SDS011;11242;50.536;12.688;2022-08-03T00:03:16;6.72;;;5.78;;
22152;SDS011;11242;50.536;12.688;2022-08-03T00:05:42;10.00;;;6.65;;
22152;SDS011;11242;50.536;12.688;2022-08-03T00:08:08;7.07;;;6.35;;
22152;SDS011;11242;50.536;12.688;2022-08-03T00:10:33;7.68;;;6.30;;
22152;SDS011;11242;50.536;12.688;2022-08-03T00:13:01;6.22;;;5.72;;
22152;SDS011;11242;50.536;12.688;2022-08-03T00:15:27;6.50;;;5.80;;
22152;SDS011;11242;50.536;12.688;2022-08-03T00:17:52;8.45;;;6.10;;
22152;SDS011;11242;50.536;12.688;2022-08-03T00:20:18;6.40;;;5.90;;
22152;SDS011;11242;50.536;12.688;2022-08-03T00:22:43;6.97;;;6.35;;
22152;SDS011;11242;50.536;12.688;2022-08-03T00:25:09;6.78;;;6.22;;
22152;SDS011;11242;50.536;12.688;2022-08-03T00:27:34;6.80;;;6.20;;
22152;SDS011;11242;50.536;12.688;2022-08-03T00:30:00;8.63;;;6.18;;
22152;SDS011;11242;50.536;12.688;2022-08-03T00:32:25;7.00;;;6.40;;
22152;SDS011;11242;50.536;12.688;2022-08-03T00:34:51;7.28;;;6.60;;
22152;SDS011;11242;50.536;12.688;2022-08-03T00:37:16;7.40;;;6.80;;
22152;SDS011;11242;50.536;12.688;2022-08-03T00:39:42;7.30;;;6.57;;
22152;SDS011;11242;50.536;12.688;2022-08-03T00:42:09;7.20;;;6.60;;
22152;SDS011;11242;50.536;12.688;2022-08-03T00:44:42;7.53;;;6.82;;
22152;SDS011;11242;50.536;12.688;2022-08-03T00:47:09;7.75;;;7.10;;
22152;SDS011;11242;50.536;12.688;2022-08-03T00:49:38;8.90;;;7.10;;
22152;SDS011;11242;50.536;12.688;2022-08-03T00:52:04;7.72;;;6.70;;
22152;SDS011;11242;50.536;12.688;2022-08-03T00:54:32;8.10;;;7.38;;
22152;SDS011;11242;50.536;12.688;2022-08-03T00:57:00;8.27;;;7.45;;
22152;SDS011;11242;50.536;12.688;2022-08-03T00:59:26;10.57;;;7.57;;
22152;SDS011;11242;50.536;12.688;2022-08-03T01:01:52;8.05;;;7.22;;
22152;SDS011;11242;50.536;12.688;2022-08-03T01:04:17;7.78;;;7.05;;
22152;SDS011;11242;50.536;12.688;2022-08-03T01:06:51;8.15;;;7.35;;
22152;SDS011;11242;50.536;12.688;2022-08-03T01:12:31;8.32;;;7.53;;
22152;SDS011;11242;50.536;12.688;2022-08-03T01:15:09;7.93;;;7.25;;
22152;SDS011;11242;50.536;12.688;2022-08-03T01:20:30;7.93;;;7.22;;
22152;SDS011;11242;50.536;12.688;2022-08-03T01:32:02;8.00;;;7.30;;
22152;SDS011;11242;50.536;12.688;2022-08-03T01:34:34;8.38;;;7.38;;
22152;SDS011;11242;50.536;12.688;2022-08-03T01:37:05;8.00;;;7.20;;
22152;SDS011;11242;50.536;12.688;2022-08-03T01:39:34;8.43;;;7.55;;
22152;SDS011;11242;50.536;12.688;2022-08-03T01:42:02;9.60;;;7.63;;
22152;SDS011;11242;50.536;12.688;2022-08-03T01:44:31;8.60;;;7.78;;
22152;SDS011;11242;50.536;12.688;2022-08-03T01:47:00;8.82;;;8.02;;
22152;SDS011;11242;50.536;12.688;2022-08-03T01:49:27;8.52;;;7.82;;
22152;SDS011;11242;50.536;12.688;2022-08-03T01:51:56;8.98;;;8.07;;
22152;SDS011;11242;50.536;12.688;2022-08-03T01:54:22;11.15;;;8.23;;
22152;SDS011;11242;50.536;12.688;2022-08-03T01:56:50;10.43;;;8.73;;
22152;SDS011;11242;50.536;12.688;2022-08-03T01:59:17;9.32;;;8.50;;
22152;SDS011;11242;50.536;12.688;2022-08-03T02:01:44;9.52;;;8.60;;
22152;SDS011;11242;50.536;12.688;2022-08-03T02:04:10;9.15;;;8.25;;
22152;SDS011;11242;50.536;12.688;2022-08-03T02:06:38;9.85;;;8.32;;
22152;SDS011;11242;50.536;12.688;2022-08-03T02:09:05;9.23;;;8.32;;
22152;SDS011;11242;50.536;12.688;2022-08-03T02:11:32;9.80;;;8.90;;
22152;SDS011;11242;50.536;12.688;2022-08-03T02:13:59;9.15;;;8.27;;
22152;SDS011;11242;50.536;12.688;2022-08-03T02:16:27;9.10;;;8.18;;
22152;SDS011;11242;50.536;12.688;2022-08-03T02:18:56;8.73;;;7.93;;
22152;SDS011;11242;50.536;12.688;2022-08-03T02:21:22;8.55;;;7.72;;
22152;SDS011;11242;50.536;12.688;2022-08-03T02:23:50;8.90;;;8.02;;
22152;SDS011;11242;50.536;12.688;2022-08-03T02:26:16;9.40;;;8.60;;
22152;SDS011;11242;50.536;12.688;2022-08-03T02:28:44;10.45;;;8.20;;
22152;SDS011;11242;50.536;12.688;2022-08-03T02:31:14;9.38;;;7.70;;
22152;SDS011;11242;50.536;12.688;2022-08-03T02:33:45;9.43;;;8.32;;
22152;SDS011;11242;50.536;12.688;2022-08-03T02:36:14;10.63;;;8.35;;
22152;SDS011;11242;50.536;12.688;2022-08-03T02:38:48;9.00;;;8.20;;
22152;SDS011;11242;50.536;12.688;2022-08-03T02:41:20;9.55;;;8.63;;
22152;SDS011;11242;50.536;12.688;2022-08-03T02:43:53;13.05;;;8.80;;
22152;SDS011;11242;50.536;12.688;2022-08-03T02:46:21;9.93;;;9.00;;
22152;SDS011;11242;50.536;12.688;2022-08-03T02:48:51;10.50;;;9.45;;
22152;SDS011;11242;50.536;12.688;2022-08-03T02:51:19;9.90;;;8.90;;
22152;SDS011;11242;50.536;12.688;2022-08-03T02:53:46;11.68;;;9.45;;
22152;SDS011;11242;50.536;12.688;2022-08-03T02:56:12;9.68;;;8.77;;
22152;SDS011;11242;50.536;12.688;2022-08-03T02:58:41;8.82;;;7.93;;
22152;SDS011;11242;50.536;12.688;2022-08-03T03:01:08;9.98;;;8.30;;
22152;SDS011;11242;50.536;12.688;2022-08-03T03:03:34;9.48;;;8.60;;
22152;SDS011;11242;50.536;12.688;2022-08-03T03:06:01;12.38;;;8.98;;
22152;SDS011;11242;50.536;12.688;2022-08-03T03:08:27;9.73;;;8.73;;
22152;SDS011;11242;50.536;12.688;2022-08-03T03:10:54;10.23;;;9.30;;
22152;SDS011;11242;50.536;12.688;2022-08-03T03:13:22;9.88;;;8.88;;
22152;SDS011;11242;50.536;12.688;2022-08-03T03:15:48;10.15;;;9.25;;
22152;SDS011;11242;50.536;12.688;2022-08-03T03:18:15;10.23;;;9.32;;
22152;SDS011;11242;50.536;12.688;2022-08-03T03:20:41;9.55;;;8.57;;
22152;SDS011;11242;50.536;12.688;2022-08-03T03:23:09;10.20;;;9.30;;
22152;SDS011;11242;50.536;12.688;2022-08-03T03:25:35;9.38;;;8.57;;
22152;SDS011;11242;50.536;12.688;2022-08-03T03:28:02;12.90;;;9.18;;
22152;SDS011;11242;50.536;12.688;2022-08-03T03:30:28;9.90;;;8.85;;
22152;SDS011;11242;50.536;12.688;2022-08-03T03:32:54;10.55;;;8.90;;
22152;SDS011;11242;50.536;12.688;2022-08-03T03:35:22;9.43;;;8.52;;
22152;SDS011;11242;50.536;12.688;2022-08-03T03:37:48;9.57;;;8.30;;
22152;SDS011;11242;50.536;12.688;2022-08-03T03:40:13;9.85;;;8.13;;
22152;SDS011;11242;50.536;12.688;2022-08-03T03:42:39;9.77;;;8.90;;
22152;SDS011;11242;50.536;12.688;2022-08-03T03:45:05;9.25;;;8.45;;
22152;SDS011;11242;50.536;12.688;2022-08-03T03:47:32;9.20;;;8.50;;
22152;SDS011;11242;50.536;12.688;2022-08-03T03:50:02;10.48;;;8.70;;
22152;SDS011;11242;50.536;12.688;2022-08-03T03:52:30;9.82;;;8.93;;
22152;SDS011;11242;50.536;12.688;2022-08-03T03:54:56;9.88;;;8.98;;
22152;SDS011;11242;50.536;12.688;2022-08-03T03:57:21;9.43;;;8.52;;
22152;SDS011;11242;50.536;12.688;2022-08-03T03:59:47;12.20;;;8.13;;
22152;SDS011;11242;50.536;12.688;2022-08-03T04:02:13;10.35;;;8.55;;
22152;SDS011;11242;50.536;12.688;2022-08-03T04:04:38;9.30;;;8.50;;
22152;SDS011;11242;50.536;12.688;2022-08-03T04:07:23;10.05;;;8.77;;
22152;SDS011;11242;50.536;12.688;2022-08-03T04:10:12;10.10;;;8.98;;
22152;SDS011;11242;50.536;12.688;2022-08-03T04:12:59;9.18;;;8.27;;
22152;SDS011;11242;50.536;12.688;2022-08-03T04:15:26;10.65;;;8.13;;
22152;SDS011;11242;50.536;12.688;2022-08-03T04:17:54;9.40;;;8.50;;
22152;SDS011;11242;50.536;12.688;2022-08-03T04:20:22;9.85;;;8.95;;
22152;SDS011;11242;50.536;12.688;2022-08-03T04:22:50;11.32;;;8.65;;
22152;SDS011;11242;50.536;12.688;2022-08-03T04:25:17;8.32;;;7.28;;
22152;SDS011;11242;50.536;12.688;2022-08-03T04:27:47;10.00;;;8.38;;
22152;SDS011;11242;50.536;12.688;2022-08-03T04:30:16;8.05;;;7.40;;
22152;SDS011;11242;50.536;12.688;2022-08-03T04:32:43;9.65;;;7.22;;
22152;SDS011;11242;50.536;12.688;2022-08-03T04:35:14;8.50;;;7.55;;
22152;SDS011;11242;50.536;12.688;2022-08-03T04:37:41;8.45;;;7.55;;
22152;SDS011;11242;50.536;12.688;2022-08-03T04:40:18;9.27;;;7.10;;
22152;SDS011;11242;50.536;12.688;2022-08-03T04:42:46;9.80;;;7.47;;
22152;SDS011;11242;50.536;12.688;2022-08-03T04:45:14;15.88;;;7.70;;
22152;SDS011;11242;50.536;12.688;2022-08-03T04:47:41;10.05;;;7.75;;
22152;SDS011;11242;50.536;12.688;2022-08-03T04:50:07;8.18;;;7.47;;
22152;SDS011;11242;50.536;12.688;2022-08-03T04:52:33;9.15;;;7.45;;
22152;SDS011;11242;50.536;12.688;2022-08-03T04:55:00;7.07;;;5.95;;
22152;SDS011;11242;50.536;12.688;2022-08-03T04:57:25;7.53;;;5.20;;
22152;SDS011;11242;50.536;12.688;2022-08-03T04:59:51;5.55;;;4.85;;
22152;SDS011;11242;50.536;12.688;2022-08-03T05:02:18;5.10;;;4.70;;
22152;SDS011;11242;50.536;12.688;2022-08-03T05:04:45;6.10;;;4.60;;
22152;SDS011;11242;50.536;12.688;2022-08-03T05:07:14;5.47;;;4.28;;
22152;SDS011;11242;50.536;12.688;2022-08-03T05:09:40;4.00;;;3.45;;
22152;SDS011;11242;50.536;12.688;2022-08-03T05:12:06;10.48;;;3.85;;
22152;SDS011;11242;50.536;12.688;2022-08-03T05:14:32;3.80;;;3.40;;
22152;SDS011;11242;50.536;12.688;2022-08-03T05:17:00;5.35;;;3.08;;
22152;SDS011;11242;50.536;12.688;2022-08-03T05:19:25;4.32;;;2.92;;
22152;SDS011;11242;50.536;12.688;2022-08-03T05:21:51;3.78;;;2.90;;
22152;SDS011;11242;50.536;12.688;2022-08-03T05:24:16;3.53;;;2.70;;
22152;SDS011;11242;50.536;12.688;2022-08-03T05:26:42;4.40;;;2.70;;
22152;SDS011;11242;50.536;12.688;2022-08-03T05:29:07;2.72;;;2.50;;
22152;SDS011;11242;50.536;12.688;2022-08-03T05:31:33;2.83;;;2.50;;
22152;SDS011;11242;50.536;12.688;2022-08-03T05:33:58;3.20;;;2.90;;
22152;SDS011;11242;50.536;12.688;2022-08-03T05:36:24;3.42;;;2.50;;
22152;SDS011;11242;50.536;12.688;2022-08-03T05:38:50;2.80;;;2.60;;
22152;SDS011;11242;50.536;12.688;2022-08-03T05:41:15;3.50;;;2.47;;
22152;SDS011;11242;50.536;12.688;2022-08-03T05:43:41;6.65;;;3.10;;
22152;SDS011;11242;50.536;12.688;2022-08-03T05:46:06;6.32;;;2.92;;
22152;SDS011;11242;50.536;12.688;2022-08-03T05:48:32;3.85;;;2.40;;
22152;SDS011;11242;50.536;12.688;2022-08-03T05:50:58;2.70;;;2.50;;
22152;SDS011;11242;50.536;12.688;2022-08-03T05:53:23;3.22;;;2.85;;
22152;SDS011;11242;50.536;12.688;2022-08-03T05:55:50;2.40;;;2.30;;
22152;SDS011;11242;50.536;12.688;2022-08-03T05:58:15;6.00;;;2.58;;
22152;SDS011;11242;50.536;12.688;2022-08-03T06:00:41;4.30;;;2.13;;
22152;SDS011;11242;50.536;12.688;2022-08-03T06:03:06;5.05;;;2.40;;
22152;SDS011;11242;50.536;12.688;2022-08-03T06:05:32;2.50;;;2.30;;
22152;SDS011;11242;50.536;12.688;2022-08-03T06:08:00;4.10;;;2.53;;
22152;SDS011;11242;50.536;12.688;2022-08-03T06:10:26;2.47;;;2.28;;
22152;SDS011;11242;50.536;12.688;2022-08-03T06:12:52;2.10;;;2.00;;
22152;SDS011;11242;50.536;12.688;2022-08-03T06:15:17;2.88;;;2.67;;
22152;SDS011;11242;50.536;12.688;2022-08-03T06:17:46;4.47;;;2.90;;
22152;SDS011;11242;50.536;12.688;2022-08-03T06:20:14;2.45;;;2.30;;
22152;SDS011;11242;50.536;12.688;2022-08-03T06:22:41;2.90;;;2.70;;
22152;SDS011;11242;50.536;12.688;2022-08-03T06:25:07;5.78;;;2.70;;
22152;SDS011;11242;50.536;12.688;2022-08-03T06:27:33;3.67;;;2.90;;
22152;SDS011;11242;50.536;12.688;2022-08-03T06:29:59;4.13;;;2.72;;
22152;SDS011;11242;50.536;12.688;2022-08-03T06:32:24;4.32;;;2.95;;
22152;SDS011;11242;50.536;12.688;2022-08-03T06:34:50;2.47;;;2.30;;
22152;SDS011;11242;50.536;12.688;2022-08-03T06:37:15;3.17;;;2.47;;
22152;SDS011;11242;50.536;12.688;2022-08-03T06:39:41;3.80;;;2.50;;
22152;SDS011;11242;50.536;12.688;2022-08-03T06:42:06;3.75;;;2.60;;
22152;SDS011;11242;50.536;12.688;2022-08-03T06:44:32;3.70;;;2.78;;
22152;SDS011;11242;50.536;12.688;2022-08-03T06:46:57;4.50;;;3.10;;
22152;SDS011;11242;50.536;12.688;2022-08-03T06:49:23;4.07;;;2.75;;
22152;SDS011;11242;50.536;12.688;2022-08-03T06:51:48;3.10;;;2.72;;
22152;SDS011;11242;50.536;12.688;2022-08-03T06:54:18;2.53;;;2.33;;
22152;SDS011;11242;50.536;12.688;2022-08-03T06:56:46;2.13;;;2.03;;
22152;SDS011;11242;50.536;12.688;2022-08-03T06:59:12;3.83;;;2.60;;
22152;SDS011;11242;50.536;12.688;2022-08-03T07:01:37;3.10;;;2.50;;
22152;SDS011;11242;50.536;12.688;2022-08-03T07:04:03;3.08;;;2.47;;
22152;SDS011;11242;50.536;12.688;2022-08-03T07:06:29;4.43;;;2.05;;
22152;SDS011;11242;50.536;12.688;2022-08-03T07:08:55;2.67;;;2.08;;
22152;SDS011;11242;50.536;12.688;2022-08-03T07:11:21;3.10;;;2.22;;
22152;SDS011;11242;50.536;12.688;2022-08-03T07:13:47;8.75;;;7.95;;
22152;SDS011;11242;50.536;12.688;2022-08-03T07:16:12;3.33;;;2.42;;
22152;SDS011;11242;50.536;12.688;2022-08-03T07:18:38;20.15;;;16.30;;
22152;SDS011;11242;50.536;12.688;2022-08-03T07:21:04;17.40;;;11.52;;
22152;SDS011;11242;50.536;12.688;2022-08-03T07:23:30;10.93;;;5.57;;
22152;SDS011;11242;50.536;12.688;2022-08-03T07:25:55;4.10;;;2.70;;
22152;SDS011;11242;50.536;12.688;2022-08-03T07:28:21;4.43;;;2.50;;
22152;SDS011;11242;50.536;12.688;2022-08-03T07:30:46;3.72;;;2.25;;
22152;SDS011;11242;50.536;12.688;2022-08-03T07:33:15;6.32;;;2.78;;
22152;SDS011;11242;50.536;12.688;2022-08-03T07:35:41;2.88;;;2.30;;
22152;SDS011;11242;50.536;12.688;2022-08-03T07:38:06;4.55;;;2.40;;
22152;SDS011;11242;50.536;12.688;2022-08-03T07:40:32;5.05;;;2.40;;
22152;SDS011;11242;50.536;12.688;2022-08-03T07:42:58;3.20;;;2.90;;
22152;SDS011;11242;50.536;12.688;2022-08-03T07:45:23;5.57;;;1.92;;
22152;SDS011;11242;50.536;12.688;2022-08-03T07:47:50;2.35;;;1.75;;
22152;SDS011;11242;50.536;12.688;2022-08-03T07:50:16;2.17;;;1.73;;
22152;SDS011;11242;50.536;12.688;2022-08-03T07:52:41;2.83;;;2.63;;
22152;SDS011;11242;50.536;12.688;2022-08-03T07:55:18;2.45;;;1.65;;
22152;SDS011;11242;50.536;12.688;2022-08-03T07:57:45;2.60;;;1.60;;
22152;SDS011;11242;50.536;12.688;2022-08-03T08:00:16;2.05;;;1.40;;
22152;SDS011;11242;50.536;12.688;2022-08-03T08:02:43;2.80;;;1.70;;
22152;SDS011;11242;50.536;12.688;2022-08-03T08:05:09;3.25;;;1.65;;
22152;SDS011;11242;50.536;12.688;2022-08-03T08:07:35;2.47;;;1.70;;
22152;SDS011;11242;50.536;12.688;2022-08-03T08:10:02;1.90;;;1.80;;
22152;SDS011;11242;50.536;12.688;2022-08-03T08:12:33;1.77;;;1.60;;
22152;SDS011;11242;50.536;12.688;2022-08-03T08:14:59;1.42;;;1.10;;
22152;SDS011;11242;50.536;12.688;2022-08-03T08:17:25;1.77;;;1.40;;
22152;SDS011;11242;50.536;12.688;2022-08-03T08:19:51;1.48;;;1.38;;
22152;SDS011;11242;50.536;12.688;2022-08-03T08:22:18;1.73;;;1.63;;
22152;SDS011;11242;50.536;12.688;2022-08-03T08:24:44;2.10;;;1.65;;
22152;SDS011;11242;50.536;12.688;2022-08-03T08:27:12;4.40;;;1.60;;
22152;SDS011;11242;50.536;12.688;2022-08-03T08:29:37;1.45;;;1.35;;
22152;SDS011;11242;50.536;12.688;2022-08-03T08:32:03;1.50;;;1.40;;
22152;SDS011;11242;50.536;12.688;2022-08-03T08:34:29;2.08;;;1.60;;
22152;SDS011;11242;50.536;12.688;2022-08-03T08:36:54;1.60;;;1.33;;
22152;SDS011;11242;50.536;12.688;2022-08-03T08:39:20;1.95;;;1.42;;
22152;SDS011;11242;50.536;12.688;2022-08-03T08:41:45;1.50;;;1.40;;
22152;SDS011;11242;50.536;12.688;2022-08-03T08:44:15;2.50;;;1.50;;
22152;SDS011;11242;50.536;12.688;2022-08-03T08:46:40;3.00;;;1.70;;
22152;SDS011;11242;50.536;12.688;2022-08-03T08:49:07;1.60;;;1.50;;
22152;SDS011;11242;50.536;12.688;2022-08-03T08:51:34;2.85;;;1.67;;
22152;SDS011;11242;50.536;12.688;2022-08-03T08:54:04;1.52;;;1.42;;
22152;SDS011;11242;50.536;12.688;2022-08-03T08:56:31;1.65;;;1.55;;
22152;SDS011;11242;50.536;12.688;2022-08-03T08:58:59;44.88;;;3.92;;
22152;SDS011;11242;50.536;12.688;2022-08-03T09:01:26;1.60;;;1.50;;
22152;SDS011;11242;50.536;12.688;2022-08-03T09:03:52;2.97;;;1.60;;
22152;SDS011;11242;50.536;12.688;2022-08-03T09:06:18;1.48;;;1.38;;
22152;SDS011;11242;50.536;12.688;2022-08-03T09:08:45;2.58;;;1.80;;
22152;SDS011;11242;50.536;12.688;2022-08-03T09:11:10;3.55;;;1.50;;
22152;SDS011;11242;50.536;12.688;2022-08-03T09:13:36;4.22;;;1.42;;
22152;SDS011;11242;50.536;12.688;2022-08-03T09:16:08;3.42;;;1.50;;
22152;SDS011;11242;50.536;12.688;2022-08-03T09:18:36;2.55;;;1.52;;
22152;SDS011;11242;50.536;12.688;2022-08-03T09:21:15;1.73;;;1.60;;
22152;SDS011;11242;50.536;12.688;2022-08-03T09:23:49;1.60;;;1.50;;
22152;SDS011;11242;50.536;12.688;2022-08-03T09:26:21;3.58;;;1.38;;
22152;SDS011;11242;50.536;12.688;2022-08-03T09:29:00;1.50;;;1.40;;
22152;SDS011;11242;50.536;12.688;2022-08-03T09:31:35;4.13;;;1.80;;
22152;SDS011;11242;50.536;12.688;2022-08-03T09:34:03;1.60;;;1.50;;
22152;SDS011;11242;50.536;12.688;2022-08-03T09:39:05;2.58;;;1.60;;
22152;SDS011;11242;50.536;12.688;2022-08-03T09:41:34;2.50;;;1.90;;
22152;SDS011;11242;50.536;12.688;2022-08-03T09:44:01;2.03;;;1.80;;
22152;SDS011;11242;50.536;12.688;2022-08-03T09:46:26;2.40;;;2.30;;
22152;SDS011;11242;50.536;12.688;2022-08-03T09:49:07;2.05;;;1.85;;
22152;SDS011;11242;50.536;12.688;2022-08-03T09:51:36;2.13;;;2.00;;
22152;SDS011;11242;50.536;12.688;2022-08-03T09:54:02;2.30;;;2.10;;
22152;SDS011;11242;50.536;12.688;2022-08-03T09:56:41;2.38;;;1.92;;
22152;SDS011;11242;50.536;12.688;2022-08-03T09:59:09;7.32;;;2.20;;
22152;SDS011;11242;50.536;12.688;2022-08-03T10:01:35;2.40;;;2.20;;
22152;SDS011;11242;50.536;12.688;2022-08-03T10:04:03;2.72;;;2.20;;
22152;SDS011;11242;50.536;12.688;2022-08-03T10:06:29;2.20;;;2.00;;
22152;SDS011;11242;50.536;12.688;2022-08-03T10:09:04;2.92;;;2.45;;
22152;SDS011;11242;50.536;12.688;2022-08-03T10:11:35;3.58;;;2.47;;
22152;SDS011;11242;50.536;12.688;2022-08-03T10:14:05;2.75;;;2.55;;
22152;SDS011;11242;50.536;12.688;2022-08-03T10:16:33;3.75;;;2.40;;
22152;SDS011;11242;50.536;12.688;2022-08-03T10:19:01;2.30;;;2.10;;
22152;SDS011;11242;50.536;12.688;2022-08-03T10:21:30;3.53;;;2.28;;
22152;SDS011;11242;50.536;12.688;2022-08-03T10:23:58;3.25;;;2.10;;
22152;SDS011;11242;50.536;12.688;2022-08-03T10:26:26;3.15;;;2.20;;
22152;SDS011;11242;50.536;12.688;2022-08-03T10:28:54;2.17;;;2.08;;
22152;SDS011;11242;50.536;12.688;2022-08-03T10:31:23;2.80;;;2.58;;
22152;SDS011;11242;50.536;12.688;2022-08-03T10:33:54;2.40;;;2.20;;
22152;SDS011;11242;50.536;12.688;2022-08-03T10:36:23;2.30;;;2.20;;
22152;SDS011;11242;50.536;12.688;2022-08-03T10:38:51;2.22;;;2.13;;
22152;SDS011;11242;50.536;12.688;2022-08-03T10:41:20;7.22;;;2.45;;
22152;SDS011;11242;50.536;12.688;2022-08-03T10:43:52;4.15;;;2.35;;
22152;SDS011;11242;50.536;12.688;2022-08-03T10:46:22;3.38;;;2.42;;
22152;SDS011;11242;50.536;12.688;2022-08-03T10:48:49;2.53;;;2.33;;
22152;SDS011;11242;50.536;12.688;2022-08-03T10:51:16;2.20;;;2.10;;
22152;SDS011;11242;50.536;12.688;2022-08-03T10:53:43;2.28;;;2.08;;
22152;SDS011;11242;50.536;12.688;2022-08-03T11:00:01;3.33;;;2.17;;
22152;SDS011;11242;50.536;12.688;2022-08-03T11:02:11;2.20;;;2.10;;
22152;SDS011;11242;50.536;12.688;2022-08-03T11:04:38;3.45;;;2.50;;
22152;SDS011;11242;50.536;12.688;2022-08-03T11:07:18;3.50;;;2.35;;
22152;SDS011;11242;50.536;12.688;2022-08-03T11:09:47;2.25;;;2.05;;
22152;SDS011;11242;50.536;12.688;2022-08-03T11:12:20;2.83;;;2.20;;
22152;SDS011;11242;50.536;12.688;2022-08-03T11:14:50;2.40;;;2.17;;
22152;SDS011;11242;50.536;12.688;2022-08-03T11:17:17;5.13;;;2.40;;
22152;SDS011;11242;50.536;12.688;2022-08-03T11:19:47;2.50;;;2.30;;
22152;SDS011;11242;50.536;12.688;2022-08-03T11:22:14;1.92;;;1.83;;
22152;SDS011;11242;50.536;12.688;2022-08-03T11:29:55;2.30;;;2.10;;
22152;SDS011;11242;50.536;12.688;2022-08-03T11:35:08;2.67;;;1.92;;
22152;SDS011;11242;50.536;12.688;2022-08-03T11:43:00;2.17;;;2.08;;
22152;SDS011;11242;50.536;12.688;2022-08-03T11:45:28;2.00;;;1.90;;
22152;SDS011;11242;50.536;12.688;2022-08-03T11:47:55;2.00;;;1.90;;
22152;SDS011;11242;50.536;12.688;2022-08-03T11:50:24;3.10;;;2.05;;
22152;SDS011;11242;50.536;12.688;2022-08-03T11:52:50;3.33;;;1.98;;
22152;SDS011;11242;50.536;12.688;2022-08-03T11:55:17;3.80;;;2.00;;
22152;SDS011;11242;50.536;12.688;2022-08-03T11:57:45;2.00;;;1.90;;
22152;SDS011;11242;50.536;12.688;2022-08-03T12:00:19;2.95;;;2.00;;
22152;SDS011;11242;50.536;12.688;2022-08-03T12:08:12;2.05;;;1.95;;
22152;SDS011;11242;50.536;12.688;2022-08-03T12:10:44;2.90;;;2.40;;
22152;SDS011;11242;50.536;12.688;2022-08-03T12:13:11;2.13;;;1.92;;
22152;SDS011;11242;50.536;12.688;2022-08-03T12:15:37;2.13;;;2.03;;
22152;SDS011;11242;50.536;12.688;2022-08-03T12:18:03;4.60;;;1.83;;
22152;SDS011;11242;50.536;12.688;2022-08-03T12:20:37;2.47;;;1.83;;
22152;SDS011;11242;50.536;12.688;2022-08-03T12:23:03;3.25;;;2.03;;
22152;SDS011;11242;50.536;12.688;2022-08-03T12:25:31;2.35;;;1.98;;
22152;SDS011;11242;50.536;12.688;2022-08-03T12:28:10;2.33;;;1.90;;
22152;SDS011;11242;50.536;12.688;2022-08-03T12:30:42;3.38;;;1.77;;
22152;SDS011;11242;50.536;12.688;2022-08-03T12:33:25;2.45;;;2.35;;
22152;SDS011;11242;50.536;12.688;2022-08-03T12:36:07;2.80;;;2.00;;
22152;SDS011;11242;50.536;12.688;2022-08-03T12:38:35;2.17;;;1.92;;
22152;SDS011;11242;50.536;12.688;2022-08-03T12:41:05;2.10;;;2.00;;
22152;SDS011;11242;50.536;12.688;2022-08-03T12:43:37;2.10;;;2.00;;
22152;SDS011;11242;50.536;12.688;2022-08-03T12:46:13;3.15;;;2.10;;
22152;SDS011;11242;50.536;12.688;2022-08-03T12:54:17;1.77;;;1.67;;
22152;SDS011;11242;50.536;12.688;2022-08-03T12:59:42;2.00;;;1.90;;
22152;SDS011;11242;50.536;12.688;2022-08-03T13:02:13;1.88;;;1.77;;
22152;SDS011;11242;50.536;12.688;2022-08-03T13:04:39;7.97;;;2.10;;
22152;SDS011;11242;50.536;12.688;2022-08-03T13:07:08;1.80;;;1.70;;
22152;SDS011;11242;50.536;12.688;2022-08-03T13:09:44;2.10;;;1.88;;
22152;SDS011;11242;50.536;12.688;2022-08-03T13:12:17;1.63;;;1.52;;
22152;SDS011;11242;50.536;12.688;2022-08-03T13:14:48;2.88;;;1.98;;
22152;SDS011;11242;50.536;12.688;2022-08-03T13:17:15;2.17;;;1.75;;
22152;SDS011;11242;50.536;12.688;2022-08-03T13:19:41;1.75;;;1.65;;
22152;SDS011;11242;50.536;12.688;2022-08-03T13:22:14;1.95;;;1.85;;
22152;SDS011;11242;50.536;12.688;2022-08-03T13:24:40;3.13;;;1.65;;
22152;SDS011;11242;50.536;12.688;2022-08-03T13:27:06;3.35;;;1.90;;
22152;SDS011;11242;50.536;12.688;2022-08-03T13:29:33;1.95;;;1.60;;
22152;SDS011;11242;50.536;12.688;2022-08-03T13:31:59;2.30;;;1.90;;
22152;SDS011;11242;50.536;12.688;2022-08-03T13:34:25;2.00;;;1.90;;
22152;SDS011;11242;50.536;12.688;2022-08-03T13:36:51;1.90;;;1.80;;
22152;SDS011;11242;50.536;12.688;2022-08-03T13:39:17;2.50;;;1.77;;
22152;SDS011;11242;50.536;12.688;2022-08-03T13:41:44;2.20;;;2.00;;
22152;SDS011;11242;50.536;12.688;2022-08-03T13:44:09;1.95;;;1.80;;
22152;SDS011;11242;50.536;12.688;2022-08-03T13:46:35;1.75;;;1.65;;
22152;SDS011;11242;50.536;12.688;2022-08-03T13:49:01;3.95;;;1.92;;
22152;SDS011;11242;50.536;12.688;2022-08-03T13:51:26;2.15;;;1.95;;
22152;SDS011;11242;50.536;12.688;2022-08-03T13:53:52;3.05;;;1.60;;
22152;SDS011;11242;50.536;12.688;2022-08-03T13:56:17;2.03;;;1.92;;
22152;SDS011;11242;50.536;12.688;2022-08-03T13:58:43;1.92;;;1.80;;
22152;SDS011;11242;50.536;12.688;2022-08-03T14:01:08;1.88;;;1.63;;
22152;SDS011;11242;50.536;12.688;2022-08-03T14:03:35;2.88;;;1.90;;
22152;SDS011;11242;50.536;12.688;2022-08-03T14:06:00;1.63;;;1.45;;
22152;SDS011;11242;50.536;12.688;2022-08-03T14:08:26;1.65;;;1.55;;
22152;SDS011;11242;50.536;12.688;2022-08-03T14:10:51;2.33;;;2.13;;
22152;SDS011;11242;50.536;12.688;2022-08-03T14:13:17;1.85;;;1.75;;
22152;SDS011;11242;50.536;12.688;2022-08-03T14:15:42;2.15;;;1.60;;
22152;SDS011;11242;50.536;12.688;2022-08-03T14:18:08;3.40;;;2.17;;
22152;SDS011;11242;50.536;12.688;2022-08-03T14:20:35;2.00;;;1.90;;
22152;SDS011;11242;50.536;12.688;2022-08-03T14:23:00;2.30;;;2.10;;
22152;SDS011;11242;50.536;12.688;2022-08-03T14:25:26;1.90;;;1.80;;
22152;SDS011;11242;50.536;12.688;2022-08-03T14:27:51;3.10;;;1.85;;
22152;SDS011;11242;50.536;12.688;2022-08-03T14:30:17;3.25;;;2.17;;
22152;SDS011;11242;50.536;12.688;2022-08-03T14:32:43;1.98;;;1.88;;
22152;SDS011;11242;50.536;12.688;2022-08-03T14:35:08;2.92;;;2.13;;
22152;SDS011;11242;50.536;12.688;2022-08-03T14:37:34;4.38;;;1.98;;
22152;SDS011;11242;50.536;12.688;2022-08-03T14:40:00;2.00;;;1.90;;
22152;SDS011;11242;50.536;12.688;2022-08-03T14:42:25;2.55;;;2.10;;
22152;SDS011;11242;50.536;12.688;2022-08-03T14:44:51;1.88;;;1.77;;
22152;SDS011;11242;50.536;12.688;2022-08-03T14:47:16;3.38;;;1.90;;
22152;SDS011;11242;50.536;12.688;2022-08-03T14:49:42;2.60;;;1.85;;
22152;SDS011;11242;50.536;12.688;2022-08-03T14:52:07;1.92;;;1.83;;
22152;SDS011;11242;50.536;12.688;2022-08-03T14:54:33;2.38;;;2.17;;
22152;SDS011;11242;50.536;12.688;2022-08-03T14:56:59;4.22;;;2.22;;
22152;SDS011;11242;50.536;12.688;2022-08-03T14:59:25;2.95;;;2.00;;
22152;SDS011;11242;50.536;12.688;2022-08-03T15:01:51;2.63;;;2.17;;
22152;SDS011;11242;50.536;12.688;2022-08-03T15:04:16;1.88;;;1.77;;
22152;SDS011;11242;50.536;12.688;2022-08-03T15:06:42;2.00;;;1.90;;
22152;SDS011;11242;50.536;12.688;2022-08-03T15:09:08;2.22;;;2.03;;
22152;SDS011;11242;50.536;12.688;2022-08-03T15:11:33;5.13;;;2.22;;
22152;SDS011;11242;50.536;12.688;2022-08-03T15:13:59;3.30;;;1.90;;
22152;SDS011;11242;50.536;12.688;2022-08-03T15:16:24;5.75;;;2.13;;
22152;SDS011;11242;50.536;12.688;2022-08-03T15:18:50;5.57;;;2.55;;
22152;SDS011;11242;50.536;12.688;2022-08-03T15:21:15;1.83;;;1.73;;
22152;SDS011;11242;50.536;12.688;2022-08-03T15:23:41;5.72;;;2.22;;